Time;durP1;ratioP1;P1;durP2;ratioP2;P2;SDS_P1;SDS_P2;PMS_P1;PMS_P2;Temp;Humidity;BMP_temperature;BMP_pressure;BME280_temperature;BME280_humidity;BME280_pressure;Samples;Min_cycle;Max_cycle;Signal;HPM_P1;HPM_P2
2022/03/17 00:01:44;;;;;;;24.17;15.07;;;9.90;99.90;;;;;;5068683;28;20235;-86
2022/03/17 00:04:10;;;;;;;23.70;14.67;;;9.80;99.90;;;;;;5068725;28;20260;-85
2022/03/17 00:06:37;;;;;;;23.93;15.03;;;9.80;99.90;;;;;;5068485;28;20212;-86
2022/03/17 00:09:06;;;;;;;24.97;16.13;;;9.80;99.90;;;;;;5068590;28;20257;-85
2022/03/17 00:11:33;;;;;;;23.57;15.07;;;9.70;99.90;;;;;;5074978;28;20215;-86
2022/03/17 00:14:02;;;;;;;25.50;14.97;;;9.70;99.90;;;;;;5088639;28;20211;-85
2022/03/17 00:16:31;;;;;;;23.43;14.23;;;9.70;99.90;;;;;;5089650;28;20286;-86
2022/03/17 00:18:57;;;;;;;23.47;15.33;;;9.70;99.90;;;;;;5078193;28;20208;-86
2022/03/17 00:21:24;;;;;;;21.90;14.50;;;9.60;99.90;;;;;;5072452;28;20578;-86
2022/03/17 00:23:51;;;;;;;23.80;14.60;;;9.70;99.90;;;;;;5072200;28;20352;-85
2022/03/17 00:26:18;;;;;;;25.80;15.50;;;9.70;99.90;;;;;;5072885;28;20243;-86
2022/03/17 00:28:44;;;;;;;23.50;14.90;;;9.50;99.90;;;;;;5072587;28;20261;-85
2022/03/17 00:31:14;;;;;;;22.50;14.33;;;9.60;99.90;;;;;;5072565;28;20211;-85
2022/03/17 00:33:41;;;;;;;21.93;14.57;;;9.60;99.90;;;;;;5083927;28;20222;-84
2022/03/17 00:36:07;;;;;;;26.37;15.67;;;9.60;99.90;;;;;;5091829;28;21007;-82
2022/03/17 00:38:38;;;;;;;24.23;15.60;;;9.50;99.90;;;;;;5088722;28;20230;-82
2022/03/17 00:41:07;;;;;;;25.03;14.30;;;9.50;99.90;;;;;;5071192;28;20266;-82
2022/03/17 00:43:34;;;;;;;24.67;15.00;;;9.50;99.90;;;;;;5071031;28;20207;-82
2022/03/17 00:46:01;;;;;;;22.17;13.90;;;9.50;99.90;;;;;;5086059;28;20679;-83
2022/03/17 00:48:30;;;;;;;23.77;14.60;;;9.50;99.90;;;;;;5083387;28;20203;-83
2022/03/17 00:50:56;;;;;;;23.07;13.07;;;9.40;99.90;;;;;;5089065;28;20207;-82
2022/03/17 00:53:23;;;;;;;23.10;13.67;;;9.40;99.90;;;;;;5078139;28;20207;-82
2022/03/17 00:55:49;;;;;;;23.83;14.17;;;9.40;99.90;;;;;;5070812;28;20272;-80
2022/03/17 00:58:16;;;;;;;25.20;14.33;;;9.30;99.90;;;;;;5070734;28;20705;-80
2022/03/17 01:00:43;;;;;;;23.40;13.70;;;9.30;99.90;;;;;;5070458;28;20280;-78
2022/03/17 01:03:10;;;;;;;22.83;12.90;;;9.30;99.90;;;;;;5070788;28;20272;-80
2022/03/17 01:05:39;;;;;;;24.30;14.30;;;9.20;99.90;;;;;;5071085;28;20748;-79
2022/03/17 01:08:05;;;;;;;24.90;13.70;;;9.30;99.90;;;;;;5079586;28;20207;-79
2022/03/17 01:10:32;;;;;;;24.70;14.23;;;9.20;99.90;;;;;;5090440;28;20734;-79
2022/03/17 01:13:01;;;;;;;22.93;14.07;;;9.20;99.90;;;;;;5090671;28;20256;-80
2022/03/17 01:15:29;;;;;;;24.00;14.40;;;9.20;99.90;;;;;;5085170;28;20207;-84
2022/03/17 01:17:56;;;;;;;25.63;14.73;;;9.20;99.90;;;;;;5090773;28;20264;-84
2022/03/17 01:20:22;;;;;;;22.23;13.17;;;9.20;99.90;;;;;;5083470;28;20231;-84
2022/03/17 01:22:50;;;;;;;22.10;13.30;;;9.10;99.90;;;;;;5070224;28;20208;-84
2022/03/17 01:25:17;;;;;;;21.77;13.13;;;9.20;99.90;;;;;;5070452;28;20297;-84
2022/03/17 01:27:44;;;;;;;24.47;15.00;;;9.10;99.90;;;;;;5070196;28;20211;-84
2022/03/17 01:30:11;;;;;;;23.67;14.17;;;9.10;99.90;;;;;;5084243;28;20260;-84
2022/03/17 01:32:38;;;;;;;24.57;14.67;;;9.10;99.90;;;;;;5091014;28;20602;-85
2022/03/17 01:35:07;;;;;;;22.67;13.73;;;9.10;99.90;;;;;;5090684;28;20238;-84
2022/03/17 01:37:34;;;;;;;24.00;13.90;;;9.10;99.90;;;;;;5090649;28;20199;-79
2022/03/17 01:40:02;;;;;;;23.53;14.57;;;9.10;99.90;;;;;;5089931;28;20226;-79
2022/03/17 01:42:28;;;;;;;22.07;14.50;;;9.10;99.90;;;;;;5090183;28;20237;-80
2022/03/17 01:44:55;;;;;;;24.53;15.30;;;9.10;99.90;;;;;;5087301;28;20210;-82
2022/03/17 01:47:27;;;;;;;23.03;14.07;;;9.10;99.90;;;;;;5070034;28;20281;-82
2022/03/17 01:49:55;;;;;;;22.30;14.30;;;9.00;99.90;;;;;;5069935;28;20922;-80
2022/03/17 01:52:21;;;;;;;26.57;15.47;;;9.00;99.90;;;;;;5069573;28;20230;-80
2022/03/17 01:54:48;;;;;;;24.73;15.23;;;9.10;99.90;;;;;;5069806;28;20261;-80
2022/03/17 01:57:17;;;;;;;27.97;15.67;;;9.00;99.90;;;;;;5069763;28;20207;-81
2022/03/17 01:59:44;;;;;;;26.57;15.53;;;9.00;99.90;;;;;;5069865;28;20214;-84
2022/03/17 02:02:12;;;;;;;24.70;14.97;;;9.00;99.90;;;;;;5070244;28;20239;-84
2022/03/17 02:04:41;;;;;;;24.93;14.33;;;9.00;99.90;;;;;;5081609;28;20273;-84
2022/03/17 02:07:09;;;;;;;27.00;16.17;;;9.10;99.90;;;;;;5090250;28;20199;-84
2022/03/17 02:09:36;;;;;;;27.63;14.93;;;9.00;99.90;;;;;;5090450;28;20207;-83
2022/03/17 02:14:52;;;;;;;28.33;16.20;;;8.90;99.90;;;;;;5090023;28;20214;-85
2022/03/17 02:17:19;;;;;;;24.73;14.70;;;8.90;99.90;;;;;;5090524;28;20218;-84
2022/03/17 02:19:46;;;;;;;24.03;15.10;;;8.90;99.90;;;;;;5077111;28;20771;-84
2022/03/17 02:22:15;;;;;;;23.43;15.07;;;8.90;99.90;;;;;;5069837;28;20235;-84
2022/03/17 02:27:30;;;;;;;26.97;16.27;;;8.90;99.90;;;;;;5069598;28;20214;-83
2022/03/17 02:29:57;;;;;;;26.00;15.30;;;8.90;99.90;;;;;;5070120;28;20256;-85
2022/03/17 02:32:24;;;;;;;25.27;15.40;;;8.90;99.90;;;;;;5069700;28;20222;-83
2022/03/17 02:34:50;;;;;;;28.17;17.00;;;8.80;99.90;;;;;;5069569;28;20634;-84
2022/03/17 02:37:18;;;;;;;25.27;15.60;;;8.80;99.90;;;;;;5069721;28;20211;-84
2022/03/17 02:39:46;;;;;;;28.47;17.23;;;8.80;99.90;;;;;;5068719;28;20705;-83
2022/03/17 02:42:12;;;;;;;24.83;15.60;;;8.80;99.90;;;;;;5087541;28;20272;-82
2022/03/17 02:44:40;;;;;;;26.73;16.80;;;8.70;99.90;;;;;;5088848;28;20276;-81
2022/03/17 02:47:07;;;;;;;31.17;17.77;;;8.70;99.90;;;;;;5089015;28;20206;-81
2022/03/17 02:49:34;;;;;;;29.30;18.87;;;8.70;99.90;;;;;;5089013;28;20206;-81
2022/03/17 02:52:01;;;;;;;31.23;17.10;;;8.70;99.90;;;;;;5088688;28;20202;-81
2022/03/17 02:54:27;;;;;;;32.60;18.43;;;8.70;99.90;;;;;;5088849;28;20320;-82
2022/03/17 02:56:55;;;;;;;31.90;18.30;;;8.70;99.90;;;;;;5088633;28;20260;-82
2022/03/17 02:59:22;;;;;;;31.40;17.60;;;8.70;99.90;;;;;;5088847;28;20206;-83
2022/03/17 03:01:48;;;;;;;29.87;19.00;;;8.70;99.90;;;;;;5070142;28;20231;-84
2022/03/17 03:04:16;;;;;;;31.27;19.47;;;8.70;99.90;;;;;;5069178;28;20203;-84
2022/03/17 03:06:43;;;;;;;31.93;20.37;;;8.70;99.90;;;;;;5069208;28;20207;-83
2022/03/17 03:09:10;;;;;;;31.73;18.27;;;8.70;99.90;;;;;;5068730;28;20604;-85
2022/03/17 03:11:37;;;;;;;32.90;18.83;;;8.60;99.90;;;;;;5068980;28;20211;-84
2022/03/17 03:14:07;;;;;;;32.00;18.03;;;8.70;99.90;;;;;;5068597;28;20203;-84
2022/03/17 03:16:35;;;;;;;29.70;17.80;;;8.70;99.90;;;;;;5088578;28;20202;-83
2022/03/17 03:19:01;;;;;;;34.00;18.47;;;8.70;99.90;;;;;;5089642;28;20203;-89
2022/03/17 03:21:29;;;;;;;34.37;18.20;;;8.60;99.90;;;;;;5090845;28;20226;-89
2022/03/17 03:23:55;;;;;;;29.43;17.70;;;8.60;99.90;;;;;;5090017;28;20241;-86
2022/03/17 03:26:22;;;;;;;31.70;18.40;;;8.60;99.90;;;;;;5089698;28;20206;-86
2022/03/17 03:28:50;;;;;;;28.30;17.53;;;8.60;99.90;;;;;;5089472;28;20207;-85
2022/03/17 03:31:18;;;;;;;28.70;17.53;;;8.60;99.90;;;;;;5089373;28;20622;-87
2022/03/17 03:33:45;;;;;;;29.03;17.37;;;8.60;99.90;;;;;;5089072;28;20256;-87
2022/03/17 03:38:56;;;;;;;32.13;18.60;;;8.60;99.90;;;;;;5078693;28;20306;-86
2022/03/17 03:41:23;;;;;;;27.27;16.37;;;8.60;99.90;;;;;;5068888;28;20783;-86
2022/03/17 03:43:50;;;;;;;28.83;17.67;;;8.60;99.90;;;;;;5069414;28;20210;-87
2022/03/17 03:46:18;;;;;;;32.20;18.37;;;8.60;99.90;;;;;;5087017;28;20796;-87
2022/03/17 03:48:45;;;;;;;31.27;18.67;;;8.60;99.90;;;;;;5089574;28;20210;-84
2022/03/17 03:51:12;;;;;;;29.73;17.70;;;8.60;99.90;;;;;;5091918;28;20256;-87
2022/03/17 03:56:25;;;;;;;29.53;17.90;;;8.50;99.90;;;;;;5087617;28;20720;-81
2022/03/17 03:58:51;;;;;;;30.17;18.87;;;8.50;99.90;;;;;;5071897;28;20714;-81
2022/03/17 04:01:19;;;;;;;29.37;17.37;;;8.50;99.90;;;;;;5072428;28;20223;-85
2022/03/17 04:03:46;;;;;;;29.17;17.93;;;8.50;99.90;;;;;;5084300;28;20206;-78
2022/03/17 04:06:14;;;;;;;28.57;16.50;;;8.50;99.90;;;;;;5092239;28;20211;-83
2022/03/17 04:08:41;;;;;;;26.80;17.57;;;8.50;99.90;;;;;;5091916;28;20265;-81
2022/03/17 04:11:07;;;;;;;30.27;18.13;;;8.40;99.90;;;;;;5083659;28;20211;-82
2022/03/17 04:13:34;;;;;;;27.23;17.30;;;8.40;99.90;;;;;;5068159;28;20498;-82
2022/03/17 04:16:01;;;;;;;32.47;19.63;;;8.40;99.90;;;;;;5083045;28;20210;-82
2022/03/17 04:18:29;;;;;;;29.90;18.27;;;8.40;99.90;;;;;;5078150;28;20284;-81
2022/03/17 04:20:55;;;;;;;31.87;18.33;;;8.40;99.90;;;;;;5067904;28;20328;-83
2022/03/17 04:23:22;;;;;;;33.40;19.17;;;8.40;99.90;;;;;;5067534;28;20247;-82
2022/03/17 04:25:49;;;;;;;29.47;18.60;;;8.40;99.90;;;;;;5067292;28;20224;-82
2022/03/17 04:28:16;;;;;;;30.33;17.50;;;8.40;99.90;;;;;;5067300;28;20243;-81
2022/03/17 04:30:43;;;;;;;29.10;17.80;;;8.40;99.90;;;;;;5067106;28;20211;-80
2022/03/17 04:33:09;;;;;;;32.13;18.37;;;8.40;99.90;;;;;;5067025;28;20206;-81
2022/03/17 04:35:37;;;;;;;26.93;18.03;;;8.40;99.90;;;;;;5085317;28;20268;-83
2022/03/17 04:38:04;;;;;;;30.53;18.40;;;8.40;99.90;;;;;;5087401;28;20223;-82
2022/03/17 04:40:31;;;;;;;27.87;17.80;;;8.40;99.90;;;;;;5087321;28;20272;-81
2022/03/17 04:42:57;;;;;;;27.60;18.07;;;8.30;99.90;;;;;;5087107;28;20486;-81
2022/03/17 04:45:24;;;;;;;33.50;19.37;;;8.30;99.90;;;;;;5086953;28;20210;-81
2022/03/17 04:47:51;;;;;;;31.10;18.97;;;8.30;99.90;;;;;;5087439;28;20210;-81
2022/03/17 04:50:17;;;;;;;33.50;19.30;;;8.30;99.90;;;;;;5087263;28;20203;-80
2022/03/17 04:55:29;;;;;;;32.77;20.20;;;8.20;99.90;;;;;;5080453;28;20222;-82
2022/03/17 04:57:56;;;;;;;32.53;19.93;;;8.20;99.90;;;;;;5085280;28;20229;-82
2022/03/17 05:00:23;;;;;;;31.17;19.33;;;8.20;99.90;;;;;;5084743;28;20647;-81
2022/03/17 05:02:49;;;;;;;31.07;19.90;;;8.20;99.90;;;;;;5081301;28;20257;-81
2022/03/17 05:05:16;;;;;;;34.73;20.83;;;8.10;99.90;;;;;;5076786;28;20241;-81
2022/03/17 05:07:43;;;;;;;32.40;19.67;;;8.10;99.90;;;;;;5077764;28;20211;-80
2022/03/17 05:10:11;;;;;;;38.33;21.67;;;8.20;99.90;;;;;;5078086;28;20250;-80
2022/03/17 05:12:39;;;;;;;31.33;19.30;;;8.20;99.90;;;;;;5080740;28;20204;-80
2022/03/17 05:15:06;;;;;;;35.30;21.23;;;8.20;99.90;;;;;;5079945;28;20226;-80
2022/03/17 05:17:33;;;;;;;33.27;20.37;;;8.20;99.90;;;;;;5076733;28;20662;-80
2022/03/17 05:20:00;;;;;;;35.13;19.80;;;8.20;99.90;;;;;;5082350;28;20203;-80
2022/03/17 05:22:28;;;;;;;36.43;21.73;;;8.20;99.90;;;;;;5074618;28;20702;-80
2022/03/17 05:24:55;;;;;;;34.87;21.03;;;8.10;99.90;;;;;;5077941;28;20322;-80
2022/03/17 05:27:23;;;;;;;33.40;20.37;;;8.10;99.90;;;;;;5079426;28;20235;-81
2022/03/17 05:29:50;;;;;;;35.47;20.33;;;8.10;99.90;;;;;;5080494;28;20211;-80
2022/03/17 05:32:17;;;;;;;34.23;20.40;;;8.10;99.90;;;;;;5077915;28;20265;-81
2022/03/17 05:34:44;;;;;;;32.80;20.27;;;8.00;99.90;;;;;;5080195;28;20199;-80
2022/03/17 05:37:11;;;;;;;36.63;22.17;;;8.10;99.90;;;;;;5076375;28;20207;-80
2022/03/17 05:39:38;;;;;;;34.97;20.33;;;8.10;99.90;;;;;;5081025;28;20208;-80
2022/03/17 05:42:05;;;;;;;34.60;21.07;;;8.00;99.90;;;;;;5082844;28;20689;-81
2022/03/17 05:44:34;;;;;;;34.67;20.27;;;8.10;99.90;;;;;;5084754;28;20203;-81
2022/03/17 05:47:04;;;;;;;34.17;21.53;;;8.00;99.90;;;;;;5073653;28;20244;-79
2022/03/17 05:49:31;;;;;;;33.57;20.90;;;8.00;99.90;;;;;;5082526;28;20285;-80
2022/03/17 05:51:58;;;;;;;32.73;20.93;;;8.10;99.90;;;;;;5082023;28;20203;-80
2022/03/17 05:54:25;;;;;;;34.33;22.07;;;8.10;99.90;;;;;;5082814;28;20233;-81
2022/03/17 05:56:52;;;;;;;33.47;20.83;;;8.10;99.90;;;;;;5085372;28;20206;-81
2022/03/17 05:59:19;;;;;;;38.73;21.63;;;8.10;99.90;;;;;;5079579;28;20657;-81
2022/03/17 06:01:47;;;;;;;32.43;20.33;;;8.00;99.90;;;;;;5087781;28;20209;-81
2022/03/17 06:04:13;;;;;;;32.80;20.60;;;8.00;99.90;;;;;;5070591;28;20276;-80
2022/03/17 06:06:40;;;;;;;33.93;21.80;;;8.00;99.90;;;;;;5070551;28;20289;-81
2022/03/17 06:09:07;;;;;;;37.87;23.33;;;8.00;99.90;;;;;;5079694;28;20195;-80
2022/03/17 06:11:33;;;;;;;32.57;21.53;;;8.00;99.90;;;;;;5077180;28;20206;-81
2022/03/17 06:14:00;;;;;;;39.67;22.67;;;8.00;99.90;;;;;;5084785;28;20629;-81
2022/03/17 06:16:27;;;;;;;34.97;22.10;;;8.00;99.90;;;;;;5077839;28;20271;-81
2022/03/17 06:18:54;;;;;;;37.30;22.33;;;8.00;99.90;;;;;;5079340;28;20210;-81
2022/03/17 06:21:21;;;;;;;37.57;21.83;;;7.90;99.90;;;;;;5080224;28;20665;-81
2022/03/17 06:23:48;;;;;;;33.83;22.47;;;8.00;99.90;;;;;;5079236;28;20292;-81
2022/03/17 06:26:17;;;;;;;38.70;22.73;;;8.00;99.90;;;;;;5079915;28;20246;-81
2022/03/17 06:28:43;;;;;;;36.23;22.40;;;8.00;99.90;;;;;;5067864;28;20615;-81
2022/03/17 06:31:10;;;;;;;38.07;22.73;;;7.90;99.90;;;;;;5067533;28;20207;-79
2022/03/17 06:33:37;;;;;;;37.10;21.23;;;8.00;99.90;;;;;;5068261;28;20207;-78
2022/03/17 06:36:09;;;;;;;40.67;22.63;;;8.00;99.90;;;;;;5067793;28;20305;-78
2022/03/17 06:38:35;;;;;;;34.37;20.30;;;8.10;99.90;;;;;;5068418;28;20648;-80
2022/03/17 06:41:04;;;;;;;41.70;21.67;;;8.10;99.90;;;;;;5077724;28;20199;-79
2022/03/17 06:43:31;;;;;;;35.17;20.80;;;8.10;99.90;;;;;;5075693;28;20223;-79
2022/03/17 06:46:00;;;;;;;38.27;22.40;;;8.10;99.90;;;;;;5078240;28;20681;-80
2022/03/17 06:48:27;;;;;;;33.47;22.00;;;8.10;99.90;;;;;;5076724;28;20200;-80
2022/03/17 06:50:53;;;;;;;38.37;23.13;;;8.20;99.90;;;;;;5076205;28;20196;-80
2022/03/17 06:53:21;;;;;;;34.60;21.03;;;8.20;99.90;;;;;;5077190;28;20211;-80
2022/03/17 06:55:48;;;;;;;38.43;21.70;;;8.20;99.90;;;;;;5078502;28;20192;-79
2022/03/17 06:58:14;;;;;;;37.57;21.73;;;8.20;99.90;;;;;;5077664;28;20258;-80
2022/03/17 07:00:41;;;;;;;37.40;23.03;;;8.20;99.90;;;;;;5075022;28;20206;-79
2022/03/17 07:03:08;;;;;;;36.37;23.33;;;8.20;99.90;;;;;;5078617;28;20222;-78
2022/03/17 07:05:35;;;;;;;38.40;23.07;;;8.30;99.90;;;;;;5073784;28;20203;-79
2022/03/17 07:08:01;;;;;;;37.17;22.13;;;8.30;99.90;;;;;;5077368;28;20206;-79
2022/03/17 07:10:29;;;;;;;39.93;22.43;;;8.30;99.90;;;;;;5078586;28;20253;-78
2022/03/17 07:12:56;;;;;;;38.63;22.30;;;8.30;99.90;;;;;;5076420;28;20200;-79
2022/03/17 07:15:23;;;;;;;37.23;22.43;;;8.30;99.90;;;;;;5076402;28;20195;-79
2022/03/17 07:17:50;;;;;;;39.20;22.87;;;8.30;99.90;;;;;;5076607;28;20203;-79
2022/03/17 07:20:19;;;;;;;41.10;23.63;;;8.30;99.90;;;;;;5078369;28;20264;-79
2022/03/17 07:22:49;;;;;;;34.73;22.23;;;8.30;99.90;;;;;;5081725;28;20605;-80
2022/03/17 07:25:17;;;;;;;37.50;22.47;;;8.30;99.90;;;;;;5075268;28;20787;-80
2022/03/17 07:27:46;;;;;;;37.97;23.43;;;8.40;99.90;;;;;;5078424;28;20658;-79
2022/03/17 07:30:18;;;;;;;37.50;23.07;;;8.40;99.90;;;;;;5078591;28;20222;-79
2022/03/17 07:32:45;;;;;;;39.57;22.87;;;8.40;99.90;;;;;;5077556;28;20195;-79
2022/03/17 07:35:12;;;;;;;36.93;22.43;;;8.40;99.90;;;;;;5076070;28;20230;-79
2022/03/17 07:37:39;;;;;;;35.93;21.63;;;8.40;99.90;;;;;;5076432;28;20226;-80
2022/03/17 07:40:07;;;;;;;39.67;22.43;;;8.40;99.90;;;;;;5077170;28;20605;-80
2022/03/17 07:42:34;;;;;;;40.97;23.03;;;8.50;99.90;;;;;;5084006;28;20276;-79
2022/03/17 07:45:02;;;;;;;41.67;24.27;;;8.50;99.90;;;;;;5069962;28;20229;-79
2022/03/17 07:47:29;;;;;;;37.10;23.97;;;8.50;99.90;;;;;;5081897;28;20206;-80
2022/03/17 07:49:56;;;;;;;38.83;22.80;;;8.50;99.90;;;;;;5078756;28;20207;-79
2022/03/17 07:52:24;;;;;;;39.57;23.33;;;8.60;99.90;;;;;;5084213;28;20296;-80
2022/03/17 07:54:50;;;;;;;39.57;24.30;;;8.60;99.90;;;;;;5079067;28;20195;-79
2022/03/17 07:57:17;;;;;;;40.33;24.30;;;8.60;99.90;;;;;;5073440;28;20211;-79
2022/03/17 07:59:44;;;;;;;39.23;23.70;;;8.60;99.90;;;;;;5074918;28;20210;-79
2022/03/17 08:02:12;;;;;;;41.70;23.50;;;8.60;99.90;;;;;;5073995;28;20200;-80
2022/03/17 08:04:40;;;;;;;38.17;23.73;;;8.60;99.90;;;;;;5075992;28;20229;-80
2022/03/17 08:07:06;;;;;;;38.47;23.13;;;8.60;99.90;;;;;;5075274;28;20199;-79
2022/03/17 08:09:33;;;;;;;38.70;24.07;;;8.60;99.90;;;;;;5078011;28;20207;-79
2022/03/17 08:12:00;;;;;;;42.13;25.00;;;8.70;99.90;;;;;;5072370;28;20239;-79
2022/03/17 08:14:26;;;;;;;39.03;24.13;;;8.70;99.90;;;;;;5075625;28;20199;-80
2022/03/17 08:16:53;;;;;;;39.27;24.00;;;8.80;99.90;;;;;;5079566;28;20212;-78
2022/03/17 08:19:22;;;;;;;38.77;23.13;;;8.80;99.90;;;;;;5078118;28;20229;-78
2022/03/17 08:21:49;;;;;;;36.33;23.30;;;8.80;99.90;;;;;;5076590;28;20886;-79
2022/03/17 08:24:15;;;;;;;40.70;25.03;;;8.80;99.90;;;;;;5075466;28;20231;-79
2022/03/17 08:26:42;;;;;;;38.87;24.00;;;8.90;99.90;;;;;;5081057;28;20263;-79
2022/03/17 08:29:09;;;;;;;37.63;24.17;;;8.90;99.90;;;;;;5086998;28;20245;-78
2022/03/17 08:31:35;;;;;;;41.80;25.40;;;8.80;99.90;;;;;;5087152;28;20264;-79
2022/03/17 08:34:02;;;;;;;40.43;24.97;;;8.80;99.90;;;;;;5087109;28;20199;-79
2022/03/17 08:36:30;;;;;;;39.97;23.73;;;8.90;99.90;;;;;;5086855;28;20214;-79
2022/03/17 08:38:56;;;;;;;40.37;24.20;;;8.90;99.90;;;;;;5079283;28;20252;-79
2022/03/17 08:41:24;;;;;;;36.50;23.30;;;8.90;99.90;;;;;;5090637;28;20216;-79
2022/03/17 08:43:52;;;;;;;38.87;24.33;;;9.00;99.90;;;;;;5090112;28;20234;-79
2022/03/17 08:49:22;;;;;;;39.70;23.70;;;9.00;99.90;;;;;;5090389;28;20497;-79
2022/03/17 08:51:52;;;;;;;42.90;24.20;;;9.00;99.90;;;;;;5090905;28;20245;-79
2022/03/17 08:54:20;;;;;;;38.33;24.27;;;9.00;99.90;;;;;;5072062;28;20222;-78
2022/03/17 08:56:47;;;;;;;37.73;23.77;;;9.10;99.90;;;;;;5070739;28;20623;-80
2022/03/17 08:59:13;;;;;;;38.70;24.17;;;9.10;99.90;;;;;;5078124;28;20257;-79
2022/03/17 09:01:40;;;;;;;39.27;23.70;;;9.10;99.90;;;;;;5078443;28;20207;-79
2022/03/17 09:04:07;;;;;;;41.20;24.90;;;9.10;99.90;;;;;;5082191;28;20754;-79
2022/03/17 09:06:36;;;;;;;39.70;23.07;;;9.10;99.90;;;;;;5080464;28;20207;-79
2022/03/17 09:09:04;;;;;;;37.83;23.67;;;9.10;99.90;;;;;;5079013;28;20607;-79
2022/03/17 09:11:34;;;;;;;37.23;22.60;;;9.10;99.90;;;;;;5079114;28;20260;-80
2022/03/17 09:14:01;;;;;;;37.03;23.40;;;9.10;99.90;;;;;;5078713;28;20198;-80
2022/03/17 09:16:28;;;;;;;38.03;23.80;;;9.20;99.90;;;;;;5080084;28;20195;-80
2022/03/17 09:18:55;;;;;;;38.97;23.23;;;9.20;99.90;;;;;;5078356;28;20203;-81
2022/03/17 09:21:22;;;;;;;33.27;22.37;;;9.20;99.90;;;;;;5081385;28;20227;-79
2022/03/17 09:23:49;;;;;;;35.27;22.70;;;9.30;99.90;;;;;;5078544;28;20268;-80
2022/03/17 09:26:16;;;;;;;39.43;23.57;;;9.30;99.90;;;;;;5080232;28;20248;-81
2022/03/17 09:28:43;;;;;;;35.57;22.17;;;9.30;99.90;;;;;;5078589;28;20268;-80
2022/03/17 09:31:10;;;;;;;37.40;22.60;;;9.40;99.90;;;;;;5080847;28;20192;-80
2022/03/17 09:33:37;;;;;;;32.97;21.90;;;9.40;99.90;;;;;;5078648;28;20252;-78
2022/03/17 09:36:07;;;;;;;35.00;22.00;;;9.40;99.90;;;;;;5078180;28;20196;-85
2022/03/17 09:38:33;;;;;;;34.13;22.17;;;9.40;99.90;;;;;;5080394;28;20226;-85
2022/03/17 09:41:01;;;;;;;35.53;22.47;;;9.40;99.90;;;;;;5076594;28;20245;-84
2022/03/17 09:43:31;;;;;;;37.53;23.43;;;9.40;99.90;;;;;;5078160;28;20828;-84
2022/03/17 09:45:59;;;;;;;36.20;22.23;;;9.40;99.90;;;;;;5080312;28;20307;-84
2022/03/17 09:48:28;;;;;;;36.37;23.10;;;9.30;99.90;;;;;;5079730;28;20299;-84
2022/03/17 09:50:57;;;;;;;34.20;23.20;;;9.40;99.90;;;;;;5080421;28;20675;-84
2022/03/17 09:53:24;;;;;;;32.53;21.70;;;9.40;99.90;;;;;;5079436;28;20215;-84
2022/03/17 09:55:51;;;;;;;33.97;21.60;;;9.40;99.90;;;;;;5081485;28;20278;-85
2022/03/17 09:58:19;;;;;;;34.20;22.23;;;9.40;99.90;;;;;;5079910;28;20660;-84
2022/03/17 10:00:50;;;;;;;35.97;22.67;;;9.40;99.90;;;;;;5078348;28;20665;-84
2022/03/17 10:03:17;;;;;;;36.87;23.20;;;9.40;99.90;;;;;;5074754;28;20581;-84
2022/03/17 10:05:46;;;;;;;36.43;23.30;;;9.40;99.90;;;;;;5073935;28;20666;-84
2022/03/17 10:08:13;;;;;;;34.60;22.37;;;9.40;99.90;;;;;;5074465;28;20212;-84
2022/03/17 10:10:41;;;;;;;35.07;22.20;;;9.50;99.90;;;;;;5073826;28;20199;-82
2022/03/17 10:13:12;;;;;;;35.77;22.30;;;9.50;99.90;;;;;;5081996;28;20658;-83
2022/03/17 10:15:39;;;;;;;34.07;21.53;;;9.50;99.90;;;;;;5074429;28;20238;-83
2022/03/17 10:18:23;;;;;;;35.10;23.07;;;9.50;99.90;;;;;;5079987;28;20640;-84
2022/03/17 10:21:06;;;;;;;40.23;24.07;;;9.50;99.90;;;;;;5078182;28;20712;-83
2022/03/17 10:23:35;;;;;;;35.13;22.80;;;9.50;99.90;;;;;;5078802;28;20340;-84
2022/03/17 10:26:01;;;;;;;31.77;22.47;;;9.60;99.90;;;;;;5083000;28;20227;-84
2022/03/17 10:28:28;;;;;;;32.93;21.80;;;9.60;99.90;;;;;;5077883;28;20207;-84
2022/03/17 10:31:09;;;;;;;32.60;22.13;;;9.70;99.90;;;;;;5081976;28;20265;-83
2022/03/17 10:33:37;;;;;;;33.77;22.27;;;9.70;99.90;;;;;;5077201;28;20202;-83
2022/03/17 10:36:21;;;;;;;33.73;21.53;;;9.80;99.90;;;;;;5079972;28;20203;-84
2022/03/17 10:38:49;;;;;;;34.90;22.97;;;9.80;99.90;;;;;;5079491;28;20230;-84
2022/03/17 10:41:17;;;;;;;38.17;21.77;;;9.80;99.90;;;;;;5082799;28;20282;-84
2022/03/17 10:43:44;;;;;;;32.27;21.17;;;9.90;99.90;;;;;;5076428;28;20226;-83
2022/03/17 10:46:15;;;;;;;32.60;21.73;;;9.90;99.90;;;;;;5075400;28;20236;-83
2022/03/17 10:48:57;;;;;;;36.03;22.60;;;10.00;99.90;;;;;;5078457;28;20189;-84
2022/03/17 10:51:38;;;;;;;32.17;22.50;;;10.00;99.90;;;;;;5069189;28;20586;-83
2022/03/17 10:54:06;;;;;;;35.50;21.60;;;10.10;99.90;;;;;;5075111;28;20192;-84
2022/03/17 10:56:35;;;;;;;29.93;21.43;;;10.10;99.90;;;;;;5079412;28;20205;-84
2022/03/17 10:59:02;;;;;;;34.10;22.47;;;10.10;99.90;;;;;;5078454;28;20206;-83
2022/03/17 11:01:40;;;;;;;35.37;23.13;;;10.20;99.90;;;;;;5077590;28;20719;-83
2022/03/17 11:04:08;;;;;;;36.27;22.80;;;10.20;99.90;;;;;;5076127;28;20276;-84
2022/03/17 11:06:38;;;;;;;34.23;22.20;;;10.20;99.90;;;;;;5072931;28;20204;-85
2022/03/17 11:09:08;;;;;;;35.67;22.53;;;10.20;99.90;;;;;;5077219;28;20231;-83
2022/03/17 11:11:35;;;;;;;32.10;22.23;;;10.20;99.90;;;;;;5076698;28;20260;-84
2022/03/17 11:14:02;;;;;;;37.57;23.10;;;10.20;99.90;;;;;;5078302;28;20195;-83
2022/03/17 11:16:34;;;;;;;33.33;22.70;;;10.20;99.90;;;;;;5079401;28;20205;-84
2022/03/17 11:19:02;;;;;;;35.53;22.10;;;10.40;99.90;;;;;;5075618;28;20709;-84
2022/03/17 11:21:32;;;;;;;34.40;22.93;;;10.30;99.90;;;;;;5077509;28;20215;-84
2022/03/17 11:24:04;;;;;;;33.57;21.93;;;10.30;99.90;;;;;;5075139;28;20719;-84
2022/03/17 11:26:35;;;;;;;34.60;21.93;;;10.40;99.90;;;;;;5078808;28;20666;-84
2022/03/17 11:29:07;;;;;;;34.17;22.43;;;10.40;99.90;;;;;;5075211;28;20224;-84
2022/03/17 11:31:54;;;;;;;31.83;21.53;;;10.50;99.90;;;;;;5078398;28;20207;-83
2022/03/17 11:34:46;;;;;;;31.13;20.60;;;10.50;99.90;;;;;;5075634;28;20202;-84
2022/03/17 11:37:23;;;;;;;31.10;20.50;;;10.60;99.90;;;;;;5077934;28;20223;-83
2022/03/17 11:39:52;;;;;;;32.90;22.30;;;10.70;99.90;;;;;;5077554;28;20195;-84
2022/03/17 11:42:40;;;;;;;32.40;22.50;;;10.70;99.90;;;;;;5073501;28;20206;-84
2022/03/17 11:45:36;;;;;;;33.03;22.20;;;10.80;99.90;;;;;;5066887;28;20269;-83
2022/03/17 11:48:08;;;;;;;34.30;22.40;;;10.90;99.90;;;;;;5067103;28;20211;-83
2022/03/17 11:50:41;;;;;;;33.33;21.83;;;10.90;99.90;;;;;;5066894;28;20196;-83
2022/03/17 11:53:20;;;;;;;31.67;21.63;;;11.00;99.90;;;;;;5074657;28;20204;-84
2022/03/17 11:55:52;;;;;;;30.93;20.90;;;11.00;99.90;;;;;;5076896;28;20592;-84
2022/03/17 11:58:24;;;;;;;31.33;19.93;;;11.00;99.90;;;;;;5075151;28;20249;-83
2022/03/17 12:00:53;;;;;;;34.03;20.63;;;11.00;99.90;;;;;;5074958;28;20205;-84
2022/03/17 12:03:30;;;;;;;31.63;22.00;;;11.00;99.90;;;;;;5077949;28;20303;-83
2022/03/17 12:06:14;;;;;;;33.67;21.00;;;11.00;99.90;;;;;;5078669;28;20202;-84
2022/03/17 12:08:50;;;;;;;33.30;20.57;;;11.00;99.90;;;;;;5073281;28;20256;-83
2022/03/17 12:11:17;;;;;;;31.60;20.70;;;11.10;99.90;;;;;;5078700;28;20662;-83
2022/03/17 12:14:21;;;;;;;31.10;20.13;;;11.10;99.90;;;;;;5080544;28;20203;-83
2022/03/17 12:16:50;;;;;;;29.80;20.70;;;11.10;99.90;;;;;;5078865;28;20602;-84
2022/03/17 12:19:29;;;;;;;31.77;20.13;;;11.00;99.90;;;;;;5079037;28;20204;-83
2022/03/17 12:22:18;;;;;;;29.50;20.07;;;11.00;99.90;;;;;;5082218;28;20202;-84
2022/03/17 12:24:52;;;;;;;32.43;21.37;;;11.00;99.90;;;;;;5078565;28;20238;-83
2022/03/17 12:27:22;;;;;;;31.73;18.97;;;11.00;99.90;;;;;;5078631;28;20196;-84
2022/03/17 12:29:51;;;;;;;27.47;18.63;;;10.90;99.90;;;;;;5080180;28;20638;-82
2022/03/17 12:32:19;;;;;;;28.10;18.57;;;10.90;99.90;;;;;;5070978;28;20203;-83
2022/03/17 12:34:47;;;;;;;31.37;19.70;;;10.90;99.90;;;;;;5079864;28;20248;-82
2022/03/17 12:37:14;;;;;;;26.03;18.43;;;11.00;99.90;;;;;;5084412;28;20714;-82
2022/03/17 12:39:42;;;;;;;28.50;19.27;;;11.00;99.90;;;;;;5086842;28;20792;-83
2022/03/17 12:42:19;;;;;;;30.37;18.73;;;10.90;99.90;;;;;;5071969;28;20207;-82
2022/03/17 12:44:51;;;;;;;24.23;17.67;;;11.00;99.90;;;;;;5082327;28;20230;-83
2022/03/17 12:47:18;;;;;;;27.60;18.03;;;11.00;99.90;;;;;;5087488;28;20404;-83
2022/03/17 12:49:45;;;;;;;30.63;17.80;;;11.00;99.90;;;;;;5084641;28;20203;-82
2022/03/17 12:52:13;;;;;;;27.17;18.50;;;11.00;99.90;;;;;;5089751;28;20687;-83
2022/03/17 12:54:40;;;;;;;27.17;18.53;;;11.00;99.90;;;;;;5072773;28;20204;-82
2022/03/17 12:57:06;;;;;;;28.77;18.90;;;11.00;99.90;;;;;;5075474;28;20268;-82
2022/03/17 12:59:34;;;;;;;27.83;19.53;;;11.10;99.90;;;;;;5077216;28;20229;-82